createdAt,value
2023-02-12T05:15:20.980Z,51.70
2023-02-12T05:16:21.012Z,58.90
2023-02-12T05:17:20.950Z,53.80
2023-02-12T05:18:21.031Z,56.40
2023-02-12T05:19:20.921Z,56.80
2023-02-12T05:20:20.901Z,51.70
2023-02-12T05:21:20.898Z,53.10
2023-02-12T05:22:20.878Z,53.90
2023-02-12T05:23:20.880Z,57.80
2023-02-12T05:24:20.851Z,58.40
2023-02-12T05:25:20.848Z,50.70
2023-02-12T05:26:20.846Z,56.30
2023-02-12T05:27:20.832Z,56.40
2023-02-12T05:28:20.831Z,56.10
2023-02-12T05:29:20.791Z,49.90
2023-02-12T05:30:20.779Z,54.60
2023-02-12T05:31:21.601Z,55.70
2023-02-12T05:32:20.790Z,54.50
2023-02-12T05:33:20.758Z,55.60
2023-02-12T05:34:20.729Z,57.00
2023-02-12T05:35:20.723Z,51.80
2023-02-12T05:36:20.714Z,57.40
2023-02-12T05:37:20.688Z,52.10
2023-02-12T05:38:20.689Z,55.20
2023-02-12T05:39:20.669Z,51.10
2023-02-12T05:40:20.656Z,53.40
2023-02-12T05:41:20.653Z,54.90
2023-02-12T05:42:20.625Z,58.40
2023-02-12T05:43:20.635Z,54.40
2023-02-12T05:44:20.612Z,63.10
2023-02-12T05:45:20.584Z,52.60
2023-02-12T05:46:20.603Z,56.40
2023-02-12T05:47:20.564Z,52.80
2023-02-12T05:48:20.580Z,53.50
2023-02-12T05:49:20.541Z,56.40
2023-02-12T05:50:20.524Z,54.90
2023-02-12T05:51:20.515Z,53.70
2023-02-12T05:52:20.493Z,56.80
2023-02-12T05:53:20.491Z,49.40
2023-02-12T05:54:20.463Z,54.60
2023-02-12T05:55:20.452Z,55.60
2023-02-12T05:56:20.455Z,53.20
2023-02-12T05:57:20.429Z,52.60
2023-02-12T05:58:20.435Z,50.00
2023-02-12T05:59:20.408Z,53.80
2023-02-12T06:00:20.391Z,54.70
2023-02-12T06:01:20.372Z,53.00
2023-02-12T06:02:20.408Z,55.20
2023-02-12T06:03:20.370Z,55.90
2023-02-12T06:04:20.413Z,57.00
2023-02-12T06:05:20.328Z,56.30
2023-02-12T06:06:20.324Z,59.40
2023-02-12T06:07:20.299Z,58.50
2023-02-12T06:08:20.301Z,53.00
2023-02-12T06:09:20.273Z,55.30
2023-02-12T06:10:20.268Z,55.60
2023-02-12T06:11:20.267Z,53.90
2023-02-12T06:12:20.238Z,50.80
2023-02-12T06:13:20.236Z,51.90
2023-02-12T06:14:20.227Z,55.10
2023-02-12T06:15:20.193Z,55.60
2023-02-12T06:16:20.258Z,56.70
2023-02-12T06:17:20.166Z,53.30
2023-02-12T06:18:20.168Z,59.20
2023-02-12T06:19:20.153Z,54.50
2023-02-12T06:20:20.138Z,60.90
2023-02-12T06:21:20.126Z,51.00
2023-02-12T06:22:20.114Z,55.80
2023-02-12T06:23:20.120Z,57.10
2023-02-12T06:24:20.105Z,57.00
2023-02-12T06:25:20.070Z,56.10
2023-02-12T06:26:20.085Z,53.50
2023-02-12T06:27:20.055Z,55.80
2023-02-12T06:28:20.065Z,56.40
2023-02-12T06:29:20.027Z,56.90
2023-02-12T06:30:20.016Z,56.50
2023-02-12T06:31:20.136Z,57.10
2023-02-12T06:32:20.079Z,55.30
2023-02-12T06:33:19.972Z,56.90
2023-02-12T06:34:19.985Z,56.80
2023-02-12T06:35:19.941Z,58.10
2023-02-12T06:36:19.931Z,59.30
2023-02-12T06:37:19.908Z,55.90
2023-02-12T06:38:19.912Z,54.60
2023-02-12T06:39:19.899Z,57.50
2023-02-12T06:40:19.878Z,55.30
2023-02-12T06:41:19.865Z,52.00
2023-02-12T06:42:19.852Z,60.70
2023-02-12T06:43:19.838Z,53.50
2023-02-12T06:44:19.847Z,56.70
2023-02-12T06:45:19.811Z,56.40
2023-02-12T06:46:19.856Z,54.80
2023-02-12T06:47:19.788Z,55.20
2023-02-12T06:48:19.781Z,60.70
2023-02-12T06:49:19.777Z,61.30
2023-02-12T06:50:19.756Z,57.10
2023-02-12T06:51:19.736Z,63.60
2023-02-12T06:52:19.735Z,58.80
2023-02-12T06:53:19.708Z,60.60
2023-02-12T06:54:19.713Z,58.40
2023-02-12T06:55:19.677Z,57.50
2023-02-12T06:56:19.681Z,64.50
2023-02-12T06:57:19.664Z,60.30
2023-02-12T06:58:19.650Z,63.90
2023-02-12T06:59:19.639Z,63.40
2023-02-12T07:00:19.624Z,59.90
2023-02-12T07:01:19.624Z,58.20
2023-02-12T07:02:19.596Z,62.30
2023-02-12T07:03:19.576Z,55.00
2023-02-12T07:04:19.661Z,61.10
2023-02-12T07:05:19.558Z,58.60
2023-02-12T07:06:19.591Z,58.50
2023-02-12T07:07:19.534Z,58.50
2023-02-12T07:08:19.516Z,60.90
2023-02-12T07:09:19.530Z,58.70
2023-02-12T07:10:19.504Z,65.90
2023-02-12T07:11:19.562Z,59.60
2023-02-12T07:12:19.475Z,57.90
2023-02-12T07:13:19.453Z,64.30
2023-02-12T07:14:19.457Z,62.10
2023-02-12T07:15:19.424Z,61.70
2023-02-12T07:16:19.485Z,62.50
2023-02-12T07:17:19.405Z,58.70
2023-02-12T07:18:19.393Z,61.50
2023-02-12T07:19:19.392Z,68.20
2023-02-12T07:20:19.367Z,60.00
2023-02-12T07:21:19.343Z,65.30
2023-02-12T07:22:19.341Z,61.60
2023-02-12T07:23:19.327Z,64.70
2023-02-12T07:24:19.338Z,66.80
2023-02-12T07:25:19.292Z,69.40
2023-02-12T07:26:19.294Z,59.40
2023-02-12T07:27:19.276Z,62.50
2023-02-12T07:28:19.302Z,67.10
2023-02-12T07:29:19.255Z,60.00
2023-02-12T07:30:19.233Z,64.90
2023-02-12T07:31:19.421Z,68.60
2023-02-12T07:32:19.212Z,57.00
2023-02-12T07:33:19.191Z,61.00
2023-02-12T07:34:19.191Z,58.90
2023-02-12T07:35:19.161Z,62.10
2023-02-12T07:36:19.181Z,69.70
2023-02-12T07:37:19.142Z,58.90
2023-02-12T07:38:19.130Z,56.70
2023-02-12T07:39:19.130Z,59.90
2023-02-12T07:40:19.112Z,58.50
2023-02-12T07:41:19.097Z,65.40
2023-02-12T07:42:19.078Z,63.80
2023-02-12T07:43:19.060Z,60.40
2023-02-12T07:44:19.069Z,56.60
2023-02-12T07:45:19.039Z,60.40
2023-02-12T07:46:19.134Z,59.90
2023-02-12T07:47:19.009Z,61.50
2023-02-12T07:48:18.999Z,64.50
2023-02-12T07:49:18.998Z,58.80
2023-02-12T07:50:18.981Z,61.30
2023-02-12T07:51:18.969Z,58.60
2023-02-12T07:52:18.950Z,63.90
2023-02-12T07:53:18.939Z,65.60
2023-02-12T07:54:18.941Z,61.60
2023-02-12T07:55:18.917Z,64.20
2023-02-12T07:56:18.907Z,58.30
2023-02-12T07:57:18.878Z,61.30
2023-02-12T07:58:18.869Z,61.90
2023-02-12T07:59:18.873Z,57.70
2023-02-12T08:00:18.856Z,60.90
2023-02-12T08:01:18.836Z,58.10
2023-02-12T08:02:18.871Z,58.80
2023-02-12T08:03:18.817Z,57.30
2023-02-12T08:04:18.894Z,60.50
2023-02-12T08:05:18.793Z,65.20
2023-02-12T08:06:18.779Z,58.40
2023-02-12T08:07:18.757Z,56.40
2023-02-12T08:08:18.756Z,60.80
2023-02-12T08:09:18.754Z,60.10
2023-02-12T08:10:18.728Z,55.70
2023-02-12T08:11:18.708Z,63.80
2023-02-12T08:12:18.706Z,68.60
2023-02-12T08:13:18.676Z,56.30
2023-02-12T08:14:18.696Z,66.90
2023-02-12T08:15:18.664Z,62.30
2023-02-12T08:16:18.674Z,64.90
2023-02-12T08:17:18.637Z,60.90
2023-02-12T08:18:18.616Z,61.40
2023-02-12T08:19:21.950Z,58.10
2023-02-12T08:20:19.587Z,56.20
2023-02-12T08:21:18.588Z,61.70
2023-02-12T08:22:18.576Z,60.20
2023-02-12T08:23:25.613Z,68.00
2023-02-12T08:24:18.555Z,57.00
2023-02-12T08:25:18.546Z,62.30
2023-02-12T08:26:18.512Z,59.80
2023-02-12T08:27:18.505Z,57.10
2023-02-12T08:28:18.542Z,60.70
2023-02-12T08:29:18.480Z,54.40
2023-02-12T08:30:18.473Z,61.80
2023-02-12T08:31:18.499Z,61.00
2023-02-12T08:32:18.526Z,61.30
2023-02-12T08:33:18.435Z,61.20
2023-02-12T08:34:18.463Z,56.40
2023-02-12T08:35:18.415Z,59.00
2023-02-12T08:36:18.386Z,60.50
2023-02-12T08:37:18.382Z,63.90
2023-02-12T08:38:18.350Z,62.40
2023-02-12T08:39:18.349Z,54.30
2023-02-12T08:40:18.341Z,58.40
2023-02-12T08:41:20.615Z,57.70
2023-02-12T08:42:18.301Z,61.00
2023-02-12T08:43:18.292Z,53.60
2023-02-12T08:44:18.300Z,63.70
2023-02-12T08:45:18.284Z,55.50
2023-02-12T08:46:18.305Z,60.00
2023-02-12T08:47:18.248Z,59.70
2023-02-12T08:48:18.229Z,55.00
2023-02-12T08:49:18.223Z,54.90
2023-02-12T08:50:18.216Z,55.10
2023-02-12T08:51:18.185Z,54.30
2023-02-12T08:52:18.178Z,57.60
2023-02-12T08:53:18.163Z,55.00
2023-02-12T08:54:18.208Z,51.90
2023-02-12T08:55:18.143Z,56.80
2023-02-12T08:56:18.128Z,52.20
2023-02-12T08:57:18.115Z,53.10
2023-02-12T08:58:18.093Z,55.10
2023-02-12T08:59:18.085Z,48.00
2023-02-12T09:00:18.092Z,55.60
2023-02-12T09:01:18.066Z,56.40
2023-02-12T09:02:18.054Z,54.40
2023-02-12T09:03:18.029Z,49.80
2023-02-12T09:04:18.187Z,51.90
2023-02-12T09:05:18.016Z,50.40
2023-02-12T09:06:17.991Z,45.70
2023-02-12T09:07:17.999Z,52.60
2023-02-12T09:08:17.969Z,51.90
2023-02-12T09:09:17.948Z,47.80
2023-02-12T09:10:17.942Z,50.70
2023-02-12T09:11:17.927Z,49.10
2023-02-12T09:12:17.909Z,50.00
2023-02-12T09:13:17.896Z,52.60
2023-02-12T09:14:17.877Z,44.30
2023-02-12T09:15:17.878Z,46.40
2023-02-12T09:16:17.882Z,47.20
2023-02-12T09:17:17.847Z,46.80
2023-02-12T09:18:17.826Z,44.30
2023-02-12T09:19:17.817Z,46.10
2023-02-12T09:20:17.825Z,47.10
2023-02-12T09:21:17.798Z,44.10
2023-02-12T09:22:17.780Z,45.80
2023-02-12T09:23:17.767Z,48.20
2023-02-12T09:24:17.797Z,47.00
2023-02-12T09:25:17.747Z,42.90
2023-02-12T09:26:17.727Z,45.10
2023-02-12T09:27:17.716Z,45.10
2023-02-12T09:28:17.719Z,41.70
2023-02-12T09:29:17.696Z,42.10
2023-02-12T09:30:17.688Z,44.30
2023-02-12T09:31:17.806Z,46.50
2023-02-12T09:32:17.647Z,44.30
2023-02-12T09:33:17.636Z,46.20
2023-02-12T09:34:17.627Z,42.80
2023-02-12T09:35:17.627Z,43.20
2023-02-12T09:36:17.623Z,44.10
2023-02-12T09:37:17.594Z,41.30
2023-02-12T09:38:17.568Z,45.80
2023-02-12T09:39:17.580Z,42.60
2023-02-12T09:40:17.557Z,40.30
2023-02-12T09:41:17.542Z,44.00
2023-02-12T09:42:17.524Z,40.40
2023-02-12T09:43:17.506Z,45.40
2023-02-12T09:44:17.498Z,42.50
2023-02-12T09:45:17.500Z,43.10
2023-02-12T09:46:17.510Z,43.10
2023-02-12T09:47:17.462Z,41.60
2023-02-12T09:48:17.466Z,41.50
2023-02-12T09:49:17.437Z,38.50
2023-02-12T09:50:17.435Z,39.60
2023-02-12T09:51:17.409Z,40.70
2023-02-12T09:52:17.415Z,40.70
2023-02-12T09:53:17.384Z,42.70
2023-02-12T09:54:17.376Z,41.20
2023-02-12T09:55:17.390Z,39.80
2023-02-12T09:56:17.357Z,39.10
2023-02-12T09:57:17.337Z,52.90
2023-02-12T09:58:17.329Z,38.90
2023-02-12T09:59:17.308Z,35.40
2023-02-12T10:00:17.310Z,35.40
2023-02-12T10:01:17.322Z,34.40
2023-02-12T10:02:17.280Z,41.80
2023-02-12T10:03:17.268Z,37.50
2023-02-12T10:04:17.261Z,44.00
2023-02-12T10:05:17.269Z,72.90
2023-02-12T10:06:17.232Z,38.20
2023-02-12T10:07:17.222Z,36.00
2023-02-12T10:08:17.209Z,37.00
2023-02-12T10:09:17.219Z,35.00
2023-02-12T10:10:17.193Z,40.00
2023-02-12T10:11:17.175Z,35.50
2023-02-12T10:12:17.149Z,35.00
2023-02-12T10:13:17.139Z,37.90
2023-02-12T10:14:17.130Z,36.50
2023-02-12T10:15:17.121Z,33.80
2023-02-12T10:16:17.214Z,39.90
2023-02-12T10:17:17.079Z,38.10
2023-02-12T10:18:17.072Z,32.90
2023-02-12T10:19:17.060Z,35.50
2023-02-12T10:20:17.061Z,33.50
2023-02-12T10:21:17.030Z,35.80
2023-02-12T10:22:17.020Z,30.90
2023-02-12T10:23:16.999Z,31.60
2023-02-12T10:24:17.023Z,33.40
2023-02-12T10:25:16.990Z,31.00
2023-02-12T10:26:16.969Z,31.60
2023-02-12T10:27:16.993Z,30.30
2023-02-12T10:28:16.997Z,30.70
2023-02-12T10:29:16.928Z,27.40
2023-02-12T10:30:16.915Z,30.70
2023-02-12T10:31:16.969Z,31.80
2023-02-12T10:32:16.906Z,32.10
2023-02-12T10:33:16.880Z,29.10
2023-02-12T10:34:16.864Z,32.90
2023-02-12T10:35:16.844Z,29.70
2023-02-12T10:36:16.846Z,30.70
2023-02-12T10:37:16.813Z,32.30
2023-02-12T10:38:16.806Z,31.10
2023-02-12T10:39:16.783Z,29.10
2023-02-12T10:40:16.819Z,26.10
2023-02-12T10:41:16.774Z,27.90
2023-02-12T10:42:16.760Z,29.10
2023-02-12T10:43:16.734Z,32.70
2023-02-12T10:44:16.723Z,30.40
2023-02-12T10:45:16.729Z,34.20
2023-02-12T10:46:16.742Z,26.70
2023-02-12T10:47:16.680Z,23.20
2023-02-12T10:48:17.038Z,24.30
2023-02-12T10:49:16.654Z,23.80
2023-02-12T10:50:16.640Z,31.10
2023-02-12T10:51:16.643Z,25.10
2023-02-12T10:52:16.624Z,25.10
2023-02-12T10:53:16.607Z,22.90
2023-02-12T10:54:16.619Z,21.50
2023-02-12T10:55:16.570Z,24.00
2023-02-12T10:56:16.620Z,19.20
2023-02-12T10:57:16.546Z,23.00
2023-02-12T10:58:16.539Z,18.00
2023-02-12T10:59:16.517Z,18.20
2023-02-12T11:00:16.507Z,18.20
2023-02-12T11:01:16.497Z,18.20
2023-02-12T11:02:16.486Z,18.60
2023-02-12T11:03:16.467Z,20.30
2023-02-12T11:04:16.457Z,20.40
2023-02-12T11:05:16.457Z,19.50
2023-02-12T11:06:16.449Z,18.70
2023-02-12T11:07:16.410Z,16.50
2023-02-12T11:08:16.397Z,20.10
2023-02-12T11:09:16.386Z,22.70
2023-02-12T11:10:16.376Z,18.00
2023-02-12T11:11:16.384Z,21.50
2023-02-12T11:12:16.365Z,25.90
2023-02-12T11:13:16.335Z,18.60
2023-02-12T11:14:16.331Z,21.10
2023-02-12T11:15:16.306Z,22.90
2023-02-12T11:16:16.351Z,21.10
2023-02-12T11:17:16.292Z,21.40
2023-02-12T11:18:16.270Z,22.80
2023-02-12T11:19:16.253Z,18.40
2023-02-12T11:20:16.261Z,20.40
2023-02-12T11:21:16.244Z,17.00
2023-02-12T11:22:16.223Z,20.50
2023-02-12T11:23:16.198Z,19.50
2023-02-12T11:24:16.186Z,19.30
2023-02-12T11:25:16.216Z,19.90
2023-02-12T11:26:16.176Z,21.30
2023-02-12T11:27:16.210Z,15.90
2023-02-12T11:28:16.175Z,20.30
2023-02-12T11:29:16.166Z,17.80
2023-02-12T11:30:16.114Z,20.30
2023-02-12T11:31:16.213Z,18.70
2023-02-12T11:32:16.082Z,19.60
2023-02-12T11:33:16.083Z,17.30
2023-02-12T11:34:16.053Z,22.00
2023-02-12T11:35:16.045Z,16.10
2023-02-12T11:36:16.032Z,28.00
2023-02-12T11:37:16.024Z,17.80
2023-02-12T11:38:16.004Z,18.90
2023-02-12T11:39:16.015Z,15.30
2023-02-12T11:40:15.982Z,19.60
2023-02-12T11:41:15.980Z,14.60
2023-02-12T11:42:15.947Z,17.00
2023-02-12T11:43:15.944Z,18.20
2023-02-12T11:44:15.926Z,20.10
2023-02-12T11:45:15.914Z,17.00
2023-02-12T11:46:16.031Z,15.30
2023-02-12T11:47:15.894Z,16.40
2023-02-12T11:48:15.888Z,17.90
2023-02-12T11:49:15.868Z,16.60
2023-02-12T11:50:15.876Z,11.80
2023-02-12T11:51:15.861Z,14.30
2023-02-12T11:52:15.816Z,14.80
2023-02-12T11:53:15.815Z,12.80
2023-02-12T11:54:15.815Z,14.10
2023-02-12T11:55:15.784Z,14.80
2023-02-12T11:56:15.777Z,15.20
2023-02-12T11:57:15.755Z,12.50
2023-02-12T11:58:15.739Z,11.60
2023-02-12T11:59:15.723Z,14.30
2023-02-12T12:00:15.710Z,18.30
2023-02-12T12:01:17.003Z,13.70
2023-02-12T12:02:15.842Z,16.00
2023-02-12T12:03:15.728Z,12.30
2023-02-12T12:04:15.655Z,14.30
2023-02-12T12:05:15.652Z,14.10
2023-02-12T12:06:15.644Z,13.50
2023-02-12T12:07:15.649Z,12.70
2023-02-12T12:08:16.756Z,15.40
2023-02-12T12:09:15.593Z,13.00
2023-02-12T12:10:15.581Z,14.50
2023-02-12T12:11:15.581Z,14.10
2023-02-12T12:12:15.551Z,13.40
2023-02-12T12:13:15.550Z,13.90
2023-02-12T12:14:15.532Z,14.70
2023-02-12T12:15:15.524Z,12.10
2023-02-12T12:16:15.588Z,15.70
2023-02-12T12:17:15.490Z,12.10
2023-02-12T12:18:15.472Z,9.50
2023-02-12T12:19:15.470Z,9.90
2023-02-12T12:20:15.460Z,11.90
2023-02-12T12:21:15.460Z,12.80
2023-02-12T12:22:15.444Z,10.10
2023-02-12T12:23:15.445Z,9.50
2023-02-12T12:24:15.401Z,9.70
2023-02-12T12:25:15.404Z,9.70
2023-02-12T12:26:15.391Z,29.80
2023-02-12T12:27:15.378Z,12.50
2023-02-12T12:28:15.371Z,37.40
2023-02-12T12:29:15.367Z,20.60
2023-02-12T12:30:15.327Z,20.90
2023-02-12T12:31:15.319Z,21.20
2023-02-12T12:32:15.300Z,18.30
2023-02-12T12:33:15.290Z,45.90
2023-02-12T12:34:15.290Z,22.90
2023-02-12T12:35:15.290Z,18.20
2023-02-12T12:36:15.241Z,23.10
2023-02-12T12:37:15.250Z,15.10
2023-02-12T12:38:15.219Z,13.70
2023-02-12T12:39:15.209Z,12.90
2023-02-12T12:40:15.200Z,10.40
2023-02-12T12:41:15.189Z,12.40
2023-02-12T12:42:15.179Z,14.70
2023-02-12T12:43:15.159Z,12.00
2023-02-12T12:44:15.138Z,14.80
2023-02-12T12:45:15.141Z,14.20
2023-02-12T12:46:15.152Z,23.90
2023-02-12T12:47:15.148Z,11.10
2023-02-12T12:48:15.093Z,9.30
2023-02-12T12:49:15.097Z,12.00
2023-02-12T12:50:15.067Z,8.10
2023-02-12T12:51:15.061Z,12.30
2023-02-12T12:52:15.048Z,10.70
2023-02-12T12:53:15.038Z,10.50
2023-02-12T12:54:15.012Z,11.30
2023-02-12T12:55:15.008Z,10.30
2023-02-12T12:56:14.992Z,13.10
2023-02-12T12:57:14.996Z,12.40
2023-02-12T12:58:14.967Z,9.50
2023-02-12T12:59:14.948Z,10.30
2023-02-12T13:00:14.937Z,9.90
2023-02-12T13:01:14.977Z,11.50
2023-02-12T13:02:14.962Z,10.30
2023-02-12T13:03:14.906Z,11.90
2023-02-12T13:04:14.895Z,10.30
2023-02-12T13:05:14.880Z,11.00
2023-02-12T13:06:14.860Z,8.00
2023-02-12T13:07:14.874Z,10.00
2023-02-12T13:08:14.830Z,8.50
2023-02-12T13:09:14.830Z,9.60
2023-02-12T13:10:14.808Z,11.20
2023-02-12T13:11:14.809Z,25.50
2023-02-12T13:12:14.802Z,42.50
2023-02-12T13:13:14.780Z,11.10
2023-02-12T13:14:14.757Z,13.50
2023-02-12T13:15:14.751Z,9.90
2023-02-12T13:16:14.772Z,9.60
2023-02-12T13:17:14.734Z,10.10
2023-02-12T13:18:14.716Z,11.90
2023-02-12T13:19:14.701Z,12.00
2023-02-12T13:20:14.694Z,42.80
2023-02-12T13:21:14.678Z,16.60
2023-02-12T13:22:14.682Z,15.00
2023-02-12T13:23:14.648Z,15.40
2023-02-12T13:24:14.641Z,9.90
2023-02-12T13:25:14.627Z,14.00
2023-02-12T13:26:14.611Z,11.40
2023-02-12T13:27:14.611Z,12.90
2023-02-12T13:28:14.676Z,16.30
2023-02-12T13:29:14.586Z,10.70
2023-02-12T13:30:14.571Z,11.50
2023-02-12T13:31:32.069Z,14.50
2023-02-12T13:32:15.591Z,10.30
2023-02-12T13:33:14.520Z,13.70
2023-02-12T13:34:14.500Z,13.40
2023-02-12T13:35:14.496Z,15.00
2023-02-12T13:36:14.476Z,16.40
2023-02-12T13:37:14.469Z,11.10
2023-02-12T13:38:14.457Z,12.30
2023-02-12T13:39:14.438Z,15.20
2023-02-12T13:40:14.431Z,13.90
2023-02-12T13:41:14.418Z,16.00
2023-02-12T13:42:14.387Z,13.30
2023-02-12T13:43:14.406Z,12.50
2023-02-12T13:44:14.367Z,13.30
2023-02-12T13:45:14.363Z,13.80
2023-02-12T13:46:14.378Z,12.40
2023-02-12T13:47:14.326Z,11.70
2023-02-12T13:48:14.327Z,11.80
2023-02-12T13:49:14.307Z,15.00
2023-02-12T13:50:14.286Z,12.90
2023-02-12T13:51:14.281Z,13.80
2023-02-12T13:52:14.280Z,12.60
2023-02-12T13:53:14.260Z,12.90
2023-02-12T13:54:14.226Z,14.30
2023-02-12T13:55:14.219Z,12.90
2023-02-12T13:56:14.206Z,12.10
2023-02-12T13:57:14.198Z,14.40
2023-02-12T13:58:14.192Z,14.20
2023-02-12T13:59:14.166Z,15.90
2023-02-12T14:00:14.155Z,12.90
2023-02-12T14:01:14.152Z,11.90
2023-02-12T14:02:14.153Z,14.50
2023-02-12T14:03:14.128Z,18.10
2023-02-12T14:04:14.104Z,14.90
2023-02-12T14:05:14.086Z,13.20
2023-02-12T14:06:14.101Z,14.10
2023-02-12T14:07:14.059Z,13.00
2023-02-12T14:08:14.065Z,12.10
2023-02-12T14:09:14.034Z,14.40
2023-02-12T14:10:14.023Z,15.00
2023-02-12T14:11:14.014Z,16.50
2023-02-12T14:12:13.992Z,17.90
2023-02-12T14:13:13.987Z,15.70
2023-02-12T14:14:13.972Z,16.00
2023-02-12T14:15:13.988Z,18.70
2023-02-12T14:16:13.968Z,14.40
2023-02-12T14:17:13.921Z,15.20
2023-02-12T14:18:13.922Z,13.20
2023-02-12T14:19:13.894Z,16.20
2023-02-12T14:20:13.908Z,13.80
2023-02-12T14:21:13.904Z,13.80
2023-02-12T14:22:13.865Z,15.20
2023-02-12T14:23:13.851Z,15.50
2023-02-12T14:24:20.900Z,12.60
2023-02-12T14:25:13.858Z,13.90
2023-02-12T14:26:13.805Z,14.10
2023-02-12T14:27:13.797Z,14.80
2023-02-12T14:28:13.829Z,14.00
2023-02-12T14:29:13.767Z,12.20
2023-02-12T14:30:13.807Z,16.30
2023-02-12T14:31:13.821Z,21.60
2023-02-12T14:32:13.724Z,21.40
2023-02-12T14:33:13.739Z,18.30
2023-02-12T14:34:13.704Z,12.20
2023-02-12T14:35:13.688Z,12.60
2023-02-12T14:36:13.675Z,13.10
2023-02-12T14:37:13.665Z,13.80
2023-02-12T14:38:13.655Z,13.20
2023-02-12T14:39:13.635Z,16.10
2023-02-12T14:40:13.617Z,12.20
2023-02-12T14:41:13.607Z,17.10
2023-02-12T14:42:13.587Z,14.90
2023-02-12T14:43:13.593Z,14.10
2023-02-12T14:44:13.566Z,15.10
2023-02-12T14:45:13.554Z,14.00
2023-02-12T14:46:13.612Z,13.30
2023-02-12T14:47:13.524Z,13.30
2023-02-12T14:48:13.527Z,15.00
2023-02-12T14:49:13.504Z,18.00
2023-02-12T14:50:13.482Z,14.60
2023-02-12T14:51:13.475Z,13.10
2023-02-12T14:52:13.473Z,13.50
2023-02-12T14:53:13.451Z,11.20
2023-02-12T14:54:13.432Z,12.50
2023-02-12T14:55:13.431Z,14.60
2023-02-12T14:56:13.401Z,10.50
2023-02-12T14:57:13.401Z,11.80
2023-02-12T14:58:13.389Z,13.30
2023-02-12T14:59:13.370Z,13.60
2023-02-12T15:00:13.350Z,10.50
2023-02-12T15:01:13.361Z,12.80
2023-02-12T15:02:13.322Z,12.40
2023-02-12T15:03:13.343Z,12.50
2023-02-12T15:04:13.321Z,12.40
2023-02-12T15:05:13.312Z,11.00
2023-02-12T15:06:13.279Z,12.30
2023-02-12T15:07:13.261Z,10.80
2023-02-12T15:08:13.248Z,11.70
2023-02-12T15:09:13.248Z,10.90
2023-02-12T15:10:13.220Z,10.70
2023-02-12T15:11:13.208Z,12.70
2023-02-12T15:12:13.189Z,12.60
2023-02-12T15:13:13.181Z,10.80
2023-02-12T15:14:13.168Z,14.00
2023-02-12T15:15:13.165Z,15.10
2023-02-12T15:16:13.188Z,13.50
2023-02-12T15:17:13.127Z,15.80
2023-02-12T15:18:13.108Z,16.00
2023-02-12T15:19:13.108Z,14.40
2023-02-12T15:20:13.078Z,14.00
2023-02-12T15:21:13.078Z,11.00
2023-02-12T15:22:13.059Z,14.40
2023-02-12T15:23:13.038Z,11.10
2023-02-12T15:24:13.042Z,11.80
2023-02-12T15:25:13.029Z,12.70
2023-02-12T15:26:13.008Z,15.00
2023-02-12T15:27:12.990Z,10.50
2023-02-12T15:28:13.001Z,11.10
2023-02-12T15:29:12.979Z,10.50
2023-02-12T15:30:20.962Z,14.70
2023-02-12T15:31:14.091Z,10.50
2023-02-12T15:32:12.919Z,12.70
2023-02-12T15:33:14.510Z,13.40
2023-02-12T15:34:12.941Z,11.70
2023-02-12T15:35:12.890Z,10.80
2023-02-12T15:36:12.868Z,16.20
2023-02-12T15:37:12.868Z,10.00
2023-02-12T15:38:12.861Z,12.50
2023-02-12T15:39:12.838Z,11.60
2023-02-12T15:40:12.818Z,14.80
2023-02-12T15:41:12.818Z,13.10
2023-02-12T15:42:12.788Z,14.90
2023-02-12T15:43:12.786Z,12.20
2023-02-12T15:44:12.775Z,16.40
2023-02-12T15:45:12.763Z,13.60
2023-02-12T15:46:12.760Z,13.60
2023-02-12T15:47:12.779Z,16.40
2023-02-12T15:48:12.721Z,26.00
2023-02-12T15:49:12.715Z,26.50
2023-02-12T15:50:12.689Z,17.40
2023-02-12T15:51:12.685Z,16.10
2023-02-12T15:52:12.657Z,23.00
2023-02-12T15:53:12.646Z,31.80
2023-02-12T15:54:12.646Z,25.40
2023-02-12T15:55:12.630Z,21.10
2023-02-12T15:56:12.611Z,22.90
2023-02-12T15:57:12.605Z,23.70
2023-02-12T15:58:12.587Z,21.40
2023-02-12T15:59:12.577Z,18.20
2023-02-12T16:00:12.547Z,17.50
2023-02-12T16:01:12.547Z,22.90
2023-02-12T16:02:12.526Z,18.70
2023-02-12T16:03:12.517Z,19.70
2023-02-12T16:04:12.573Z,18.50
2023-02-12T16:05:12.488Z,16.40
2023-02-12T16:06:12.475Z,19.50
2023-02-12T16:07:12.464Z,15.40
2023-02-12T16:08:12.445Z,18.30
2023-02-12T16:09:12.460Z,14.70
2023-02-12T16:10:12.419Z,17.90
2023-02-12T16:11:12.409Z,16.00
2023-02-12T16:12:12.394Z,56.30
2023-02-12T16:13:12.384Z,21.90
2023-02-12T16:14:12.375Z,13.40
2023-02-12T16:15:12.355Z,20.80
2023-02-12T16:16:12.400Z,18.30
2023-02-12T16:17:12.335Z,16.20
2023-02-12T16:18:12.353Z,16.40
2023-02-12T16:19:12.305Z,17.30
2023-02-12T16:20:12.284Z,19.10
2023-02-12T16:21:12.284Z,19.00
2023-02-12T16:22:12.264Z,19.30
2023-02-12T16:23:12.254Z,19.50
2023-02-12T16:24:12.243Z,18.30
2023-02-12T16:25:12.224Z,17.40
2023-02-12T16:26:12.205Z,15.70
2023-02-12T16:27:12.198Z,18.90
2023-02-12T16:28:12.229Z,14.80
2023-02-12T16:29:12.193Z,13.70
2023-02-12T16:30:12.172Z,15.70
2023-02-12T16:31:12.263Z,15.00
2023-02-12T16:32:12.141Z,15.30
2023-02-12T16:33:12.115Z,16.30
2023-02-12T16:34:12.136Z,17.80
2023-02-12T16:35:12.162Z,18.80
2023-02-12T16:36:12.073Z,18.70
2023-02-12T16:37:12.063Z,15.10
2023-02-12T16:38:12.046Z,17.70
2023-02-12T16:39:12.042Z,16.30
2023-02-12T16:40:12.046Z,16.80
2023-02-12T16:41:12.014Z,16.00
2023-02-12T16:42:11.996Z,20.00
2023-02-12T16:43:11.992Z,18.30
2023-02-12T16:44:11.980Z,21.80
2023-02-12T16:45:12.002Z,28.70
2023-02-12T16:46:12.017Z,22.40
2023-02-12T16:47:11.955Z,37.50
2023-02-12T16:48:11.911Z,20.00
2023-02-12T16:49:11.942Z,50.40
2023-02-12T16:50:11.902Z,50.50
2023-02-12T16:51:11.881Z,60.90
2023-02-12T16:52:11.864Z,64.70
2023-02-12T16:53:11.869Z,22.30
2023-02-12T16:54:11.840Z,19.40
2023-02-12T16:55:11.850Z,18.30
2023-02-12T16:56:11.822Z,17.10
2023-02-12T16:57:11.812Z,23.20
2023-02-12T16:58:11.793Z,18.90
2023-02-12T16:59:11.780Z,23.00
2023-02-12T17:00:11.780Z,20.90
2023-02-12T17:01:11.831Z,21.00
2023-02-12T17:02:11.750Z,24.70
2023-02-12T17:03:11.755Z,19.70
2023-02-12T17:04:11.721Z,36.30
2023-02-12T17:05:11.711Z,19.40
2023-02-12T17:06:11.694Z,21.10
2023-02-12T17:07:11.691Z,20.50
2023-02-12T17:08:11.662Z,24.10
2023-02-12T17:09:11.656Z,24.20
2023-02-12T17:10:11.646Z,20.00
2023-02-12T17:11:11.634Z,23.50
2023-02-12T17:12:11.626Z,24.50
2023-02-12T17:13:11.614Z,24.60
2023-02-12T17:14:11.582Z,28.40
2023-02-12T17:15:11.581Z,27.00
2023-02-12T17:16:14.492Z,31.50
2023-02-12T17:17:12.550Z,29.50
2023-02-12T17:18:11.530Z,28.30
2023-02-12T17:19:11.520Z,32.80
2023-02-12T17:20:11.525Z,34.30
2023-02-12T17:21:11.491Z,37.50
2023-02-12T17:22:11.481Z,35.40
2023-02-12T17:23:11.475Z,31.00
2023-02-12T17:24:11.448Z,26.60
2023-02-12T17:25:11.444Z,21.20
2023-02-12T17:26:11.430Z,28.40
2023-02-12T17:27:11.410Z,22.10
2023-02-12T17:28:11.419Z,23.80
2023-02-12T17:29:11.393Z,35.20
2023-02-12T17:30:11.398Z,29.40
2023-02-12T17:31:11.443Z,25.40
2023-02-12T17:32:11.412Z,26.30
2023-02-12T17:33:11.339Z,28.20
2023-02-12T17:34:11.322Z,25.70
2023-02-12T17:35:11.324Z,28.50
2023-02-12T17:36:11.308Z,27.50
2023-02-12T17:37:11.284Z,27.80
2023-02-12T17:38:11.268Z,31.80
2023-02-12T17:39:11.258Z,26.50
2023-02-12T17:40:11.269Z,26.50
2023-02-12T17:41:11.227Z,26.30
2023-02-12T17:42:11.240Z,25.80
2023-02-12T17:43:11.248Z,23.70
2023-02-12T17:44:11.200Z,28.00
2023-02-12T17:45:11.192Z,26.30
2023-02-12T17:46:11.234Z,27.00
2023-02-12T17:47:11.151Z,27.90
2023-02-12T17:48:11.155Z,26.30
2023-02-12T17:49:11.132Z,27.80
2023-02-12T17:50:11.132Z,29.90
2023-02-12T17:51:11.117Z,28.40
2023-02-12T17:52:11.089Z,26.70
2023-02-12T17:53:11.090Z,26.90
2023-02-12T17:54:11.071Z,23.80
2023-02-12T17:55:11.049Z,23.40
2023-02-12T17:56:11.056Z,22.90
2023-02-12T17:57:12.383Z,19.10
2023-02-12T17:58:11.007Z,19.40
2023-02-12T17:59:10.994Z,21.60
2023-02-12T18:00:10.990Z,19.10
2023-02-12T18:01:10.996Z,22.70
2023-02-12T18:02:10.957Z,17.20
2023-02-12T18:03:10.944Z,22.50
2023-02-12T18:04:11.031Z,21.80
2023-02-12T18:05:10.916Z,22.40
2023-02-12T18:06:10.922Z,29.00
2023-02-12T18:07:10.896Z,26.20
2023-02-12T18:08:10.887Z,23.00